createdAt,value
2023-05-08T00:02:13.867Z,11.58
2023-05-08T00:04:40.570Z,10.99
2023-05-08T00:07:07.179Z,10.32
2023-05-08T00:09:33.804Z,11.97
2023-05-08T00:12:00.550Z,11.83
2023-05-08T00:14:27.199Z,11.85
2023-05-08T00:16:53.914Z,12.15
2023-05-08T00:19:20.838Z,11.74
2023-05-08T00:21:47.454Z,10.29
2023-05-08T00:24:14.149Z,9.19
2023-05-08T00:26:42.029Z,9.43
2023-05-08T00:29:08.685Z,10.57
2023-05-08T00:31:35.569Z,10.28
2023-05-08T00:34:02.562Z,11.14
2023-05-08T00:36:29.205Z,10.87
2023-05-08T00:38:55.843Z,8.55
2023-05-08T00:41:22.413Z,9.09
2023-05-08T00:43:49.220Z,8.60
2023-05-08T00:46:16.387Z,9.01
2023-05-08T00:48:44.516Z,10.80
2023-05-08T00:51:11.786Z,12.36
2023-05-08T00:53:43.255Z,11.90
2023-05-08T00:56:15.219Z,11.36
2023-05-08T00:58:42.938Z,12.06
2023-05-08T01:01:11.256Z,10.80
2023-05-08T01:03:38.581Z,11.02
2023-05-08T01:06:06.692Z,12.79
2023-05-08T01:08:33.390Z,12.94
2023-05-08T01:11:28.556Z,12.79
2023-05-08T01:14:07.762Z,13.14
2023-05-08T01:16:40.519Z,13.63
2023-05-08T01:19:31.715Z,12.83
2023-05-08T01:22:24.128Z,11.64
2023-05-08T01:25:28.315Z,11.83
2023-05-08T01:27:57.929Z,10.73
2023-05-08T01:30:37.880Z,10.02
2023-05-08T01:33:16.052Z,10.08
2023-05-08T01:35:47.962Z,10.21
2023-05-08T01:38:29.820Z,10.17
2023-05-08T01:41:26.003Z,10.49
2023-05-08T01:44:15.310Z,10.61
2023-05-08T01:46:46.792Z,10.15
2023-05-08T01:49:26.880Z,10.62
2023-05-08T01:52:05.769Z,10.75
2023-05-08T01:54:42.828Z,10.50
2023-05-08T01:57:12.115Z,10.43
2023-05-08T01:59:43.078Z,9.26
2023-05-08T02:02:11.527Z,9.84
2023-05-08T02:04:40.275Z,9.33
2023-05-08T02:07:07.982Z,10.03
2023-05-08T02:09:35.312Z,12.86
2023-05-08T02:12:06.452Z,13.63
2023-05-08T02:14:34.413Z,13.50
2023-05-08T02:17:03.347Z,13.10
2023-05-08T02:19:30.513Z,14.18
2023-05-08T02:22:00.642Z,12.55
2023-05-08T02:24:27.478Z,12.15
2023-05-08T02:26:56.903Z,13.38
2023-05-08T02:29:25.269Z,14.58
2023-05-08T02:31:54.760Z,15.30
2023-05-08T02:34:24.261Z,15.38
2023-05-08T02:36:53.714Z,15.12
2023-05-08T02:39:25.241Z,15.50
2023-05-08T02:41:52.351Z,15.34
2023-05-08T02:44:19.486Z,15.28
2023-05-08T02:46:53.479Z,14.27
2023-05-08T02:49:28.352Z,14.10
2023-05-08T02:52:08.764Z,15.55
2023-05-08T02:54:44.045Z,15.32
2023-05-08T02:57:14.101Z,14.87
2023-05-08T02:59:54.022Z,14.70
2023-05-08T03:02:39.130Z,15.55
2023-05-08T03:05:25.898Z,15.41
2023-05-08T03:07:57.393Z,14.90
2023-05-08T03:10:31.751Z,12.64
2023-05-08T03:13:03.023Z,12.29
2023-05-08T03:15:35.825Z,13.84
2023-05-08T03:18:08.832Z,13.65
2023-05-08T03:20:39.991Z,13.73
2023-05-08T03:23:10.227Z,13.32
2023-05-08T03:25:39.766Z,12.94
2023-05-08T03:28:08.188Z,12.72
2023-05-08T03:30:38.284Z,12.00
2023-05-08T03:33:07.436Z,12.94
2023-05-08T03:35:39.947Z,13.78
2023-05-08T03:38:07.961Z,13.81
2023-05-08T03:40:39.072Z,14.26
2023-05-08T03:43:07.846Z,13.87
2023-05-08T03:45:38.373Z,14.12
2023-05-08T03:48:09.978Z,13.70
2023-05-08T03:50:37.964Z,13.55
2023-05-08T03:53:05.411Z,12.35
2023-05-08T03:55:32.721Z,12.95
2023-05-08T03:58:24.154Z,13.60
2023-05-08T04:01:15.330Z,13.04
2023-05-08T04:03:56.372Z,12.77
2023-05-08T04:06:35.740Z,13.10
2023-05-08T04:09:34.415Z,14.18
2023-05-08T04:12:05.450Z,13.54
2023-05-08T04:14:42.896Z,13.87
2023-05-08T04:17:14.518Z,13.71
2023-05-08T04:19:52.010Z,13.59
2023-05-08T04:22:23.331Z,13.48
2023-05-08T04:24:53.748Z,13.54
2023-05-08T04:27:21.055Z,13.85
2023-05-08T04:29:47.895Z,13.84
2023-05-08T04:32:15.010Z,13.64
2023-05-08T04:34:41.761Z,13.81
2023-05-08T04:37:08.848Z,13.63
2023-05-08T04:39:35.444Z,13.96
2023-05-08T04:42:03.757Z,13.82
2023-05-08T04:44:30.527Z,13.36
2023-05-08T04:46:57.148Z,13.38
2023-05-08T04:49:23.825Z,14.98
2023-05-08T04:51:50.415Z,15.94
2023-05-08T04:54:17.010Z,16.46
2023-05-08T04:56:43.586Z,16.09
2023-05-08T04:59:11.560Z,15.22
2023-05-08T05:01:38.207Z,14.69
2023-05-08T05:04:05.251Z,15.76
2023-05-08T05:06:33.540Z,15.46
2023-05-08T05:09:00.232Z,15.38
2023-05-08T05:11:26.844Z,15.16
2023-05-08T05:13:53.434Z,16.04
2023-05-08T05:16:20.138Z,16.51
2023-05-08T05:18:47.088Z,16.50
2023-05-08T05:21:14.031Z,16.29
2023-05-08T05:23:41.373Z,16.58
2023-05-08T05:26:08.347Z,16.98
2023-05-08T05:28:34.984Z,16.84
2023-05-08T05:31:01.769Z,16.50
2023-05-08T05:33:28.444Z,17.27
2023-05-08T05:35:55.049Z,17.12
2023-05-08T05:38:21.612Z,17.58
2023-05-08T05:40:48.194Z,17.39
2023-05-08T05:43:14.894Z,19.33
2023-05-08T05:45:42.145Z,19.07
2023-05-08T05:48:08.947Z,18.50
2023-05-08T05:50:35.617Z,18.52
2023-05-08T05:53:02.270Z,19.23
2023-05-08T05:55:28.910Z,19.51
2023-05-08T05:57:55.752Z,19.06
2023-05-08T06:00:22.513Z,20.34
2023-05-08T06:02:49.413Z,21.46
2023-05-08T06:05:16.327Z,21.82
2023-05-08T06:07:42.885Z,22.28
2023-05-08T06:10:09.933Z,23.81
2023-05-08T06:12:36.522Z,23.18
2023-05-08T06:15:03.361Z,22.54
2023-05-08T06:17:30.054Z,22.27
2023-05-08T06:19:56.673Z,23.69
2023-05-08T06:22:24.405Z,24.82
2023-05-08T06:24:53.493Z,23.46
2023-05-08T06:27:21.226Z,24.10
2023-05-08T06:29:51.553Z,23.65
2023-05-08T06:32:18.350Z,23.48
2023-05-08T06:34:45.413Z,23.03
2023-05-08T06:37:12.439Z,22.90
2023-05-08T06:39:39.032Z,23.83
2023-05-08T06:42:08.168Z,23.64
2023-05-08T06:44:35.536Z,22.84
2023-05-08T06:47:02.278Z,23.77
2023-05-08T06:49:29.620Z,23.77
2023-05-08T06:51:57.967Z,25.23
2023-05-08T06:54:25.091Z,25.26
2023-05-08T06:56:53.298Z,25.75
2023-05-08T06:59:21.225Z,25.43
2023-05-08T07:01:47.958Z,24.71
2023-05-08T07:04:14.870Z,25.37
2023-05-08T07:06:41.537Z,25.69
2023-05-08T07:09:08.211Z,26.63
2023-05-08T07:11:34.856Z,26.77
2023-05-08T07:14:01.500Z,26.32
2023-05-08T07:16:28.117Z,27.73
2023-05-08T07:18:55.505Z,27.78
2023-05-08T07:21:22.136Z,27.33
2023-05-08T07:23:51.560Z,28.04
2023-05-08T07:26:18.653Z,27.89
2023-05-08T07:28:45.319Z,27.57
2023-05-08T07:31:12.180Z,28.75
2023-05-08T07:33:38.891Z,31.98
2023-05-08T07:36:05.832Z,33.44
2023-05-08T07:38:32.440Z,31.79
2023-05-08T07:41:01.383Z,31.90
2023-05-08T07:43:28.134Z,31.20
2023-05-08T07:45:54.786Z,30.99
2023-05-08T07:48:21.792Z,32.36
2023-05-08T07:50:50.229Z,31.75
2023-05-08T07:53:17.151Z,30.93
2023-05-08T07:55:43.897Z,32.59
2023-05-08T07:58:10.491Z,32.21
2023-05-08T08:00:37.896Z,31.87
2023-05-08T08:03:04.593Z,31.57
2023-05-08T08:05:31.294Z,31.85
2023-05-08T08:07:57.882Z,31.68
2023-05-08T08:10:24.489Z,33.06
2023-05-08T08:12:51.213Z,35.79
2023-05-08T08:15:17.977Z,36.18
2023-05-08T08:17:44.651Z,32.29
2023-05-08T08:20:11.775Z,32.97
2023-05-08T08:22:39.130Z,33.56
2023-05-08T08:25:06.162Z,32.67
2023-05-08T08:27:32.823Z,33.00
2023-05-08T08:30:12.100Z,32.56
2023-05-08T08:32:43.294Z,32.99
2023-05-08T08:35:10.237Z,31.31
2023-05-08T08:37:36.997Z,32.68
2023-05-08T08:40:04.073Z,32.07
2023-05-08T08:42:31.594Z,31.61
2023-05-08T08:44:58.225Z,33.02
2023-05-08T08:47:33.898Z,30.09
2023-05-08T08:50:05.415Z,30.94
2023-05-08T08:53:01.400Z,31.27
2023-05-08T08:55:30.809Z,31.60
2023-05-08T08:58:21.111Z,31.03
2023-05-08T09:00:49.515Z,30.76
2023-05-08T09:03:16.638Z,31.41
2023-05-08T09:05:45.292Z,31.16
2023-05-08T09:08:12.832Z,31.34
2023-05-08T09:10:39.540Z,31.56
2023-05-08T09:13:06.386Z,29.68
2023-05-08T09:15:33.896Z,29.94
2023-05-08T09:18:03.784Z,29.15
2023-05-08T09:20:30.775Z,29.18
2023-05-08T09:22:57.962Z,29.57
2023-05-08T09:25:25.772Z,28.76
2023-05-08T09:27:52.379Z,27.92
2023-05-08T09:30:19.223Z,27.84
2023-05-08T09:32:46.026Z,27.16
2023-05-08T09:35:13.386Z,26.70
2023-05-08T09:37:43.141Z,26.31
2023-05-08T09:40:22.751Z,25.85
2023-05-08T09:42:50.835Z,25.51
2023-05-08T09:45:31.717Z,25.26
2023-05-08T09:47:59.144Z,25.82
2023-05-08T09:50:26.103Z,26.97
2023-05-08T09:52:52.852Z,25.58
2023-05-08T09:55:20.079Z,25.92
2023-05-08T09:57:53.942Z,26.17
2023-05-08T10:00:21.255Z,26.71
2023-05-08T10:03:02.360Z,27.32
2023-05-08T10:05:32.227Z,27.95
2023-05-08T10:08:17.320Z,27.70
2023-05-08T10:10:44.121Z,29.11
2023-05-08T10:13:10.831Z,28.06
2023-05-08T10:15:41.704Z,30.27
2023-05-08T10:18:09.400Z,29.89
2023-05-08T10:20:42.574Z,32.03
2023-05-08T10:23:14.417Z,32.22
2023-05-08T10:25:47.445Z,33.11
2023-05-08T10:28:23.518Z,34.38
2023-05-08T10:30:50.640Z,34.17
2023-05-08T10:33:21.498Z,39.96
2023-05-08T10:35:48.983Z,46.70
2023-05-08T10:38:17.178Z,47.91
2023-05-08T10:40:44.888Z,47.21
2023-05-08T10:43:12.682Z,44.23
2023-05-08T10:45:40.164Z,46.73
2023-05-08T10:48:24.654Z,46.85
2023-05-08T10:51:14.197Z,47.31
2023-05-08T10:54:13.313Z,45.62
2023-05-08T10:56:39.951Z,48.96
2023-05-08T10:59:06.723Z,49.95
2023-05-08T11:01:33.475Z,49.46
2023-05-08T11:04:00.591Z,48.15
2023-05-08T11:06:49.381Z,49.15
2023-05-08T11:09:28.092Z,50.67
2023-05-08T11:12:08.865Z,49.89
2023-05-08T11:14:41.109Z,49.58
2023-05-08T11:17:08.917Z,50.48
2023-05-08T11:19:37.017Z,50.48
2023-05-08T11:22:26.068Z,54.49
2023-05-08T11:24:59.095Z,54.28
2023-05-08T11:27:46.826Z,55.70
2023-05-08T11:30:32.098Z,55.94
2023-05-08T11:33:05.093Z,56.81
2023-05-08T11:35:57.633Z,59.78
2023-05-08T11:38:31.738Z,57.48
2023-05-08T11:40:58.392Z,60.08
2023-05-08T11:43:34.097Z,59.43
2023-05-08T11:46:06.892Z,58.80
2023-05-08T11:48:34.751Z,59.46
2023-05-08T11:51:03.120Z,56.98
2023-05-08T11:53:31.425Z,59.13
2023-05-08T11:55:59.801Z,57.67
2023-05-08T11:58:26.668Z,55.63
2023-05-08T12:00:54.598Z,57.52
2023-05-08T12:03:25.761Z,56.00
2023-05-08T12:05:56.659Z,55.45
2023-05-08T12:08:23.792Z,56.01
2023-05-08T12:10:55.476Z,56.51
2023-05-08T12:13:26.331Z,56.33
2023-05-08T12:15:58.253Z,54.66
2023-05-08T12:18:27.076Z,53.04
2023-05-08T12:20:56.970Z,50.16
2023-05-08T12:23:26.650Z,52.21
2023-05-08T12:25:55.428Z,53.02
2023-05-08T12:28:22.660Z,53.09
2023-05-08T12:30:50.169Z,50.30
2023-05-08T12:33:18.809Z,49.15
2023-05-08T12:35:45.730Z,50.31
2023-05-08T12:38:12.430Z,48.80
2023-05-08T12:40:52.845Z,50.17
2023-05-08T12:43:19.440Z,46.27
2023-05-08T12:45:46.092Z,46.40
2023-05-08T12:48:15.597Z,45.46
2023-05-08T12:50:46.229Z,44.09
2023-05-08T12:53:15.068Z,42.48
2023-05-08T12:55:52.831Z,42.06
2023-05-08T12:58:23.999Z,42.82
2023-05-08T13:00:52.498Z,42.23
2023-05-08T13:03:27.958Z,39.25
2023-05-08T13:05:58.740Z,39.50
2023-05-08T13:08:33.454Z,39.36
2023-05-08T13:11:01.749Z,39.86
2023-05-08T13:13:31.679Z,40.36
2023-05-08T13:16:05.421Z,40.86
2023-05-08T13:18:32.525Z,39.62
2023-05-08T13:20:59.713Z,38.71
2023-05-08T13:23:26.333Z,38.50
2023-05-08T13:25:52.998Z,38.82
2023-05-08T13:28:19.594Z,38.63
2023-05-08T13:30:46.210Z,40.38
2023-05-08T13:33:12.900Z,39.53
2023-05-08T13:35:39.610Z,40.10
2023-05-08T13:38:06.224Z,38.75
2023-05-08T13:40:33.173Z,39.37
2023-05-08T13:42:59.788Z,38.65
2023-05-08T13:45:26.502Z,37.76
2023-05-08T13:47:53.138Z,40.00
2023-05-08T13:50:21.601Z,39.46
2023-05-08T13:52:48.852Z,40.04
2023-05-08T13:55:15.998Z,39.67
2023-05-08T13:57:43.114Z,41.65
2023-05-08T14:00:10.467Z,40.38
2023-05-08T14:02:37.837Z,40.99
2023-05-08T14:05:08.094Z,41.06
2023-05-08T14:07:35.474Z,40.81
2023-05-08T14:10:02.315Z,41.57
2023-05-08T14:12:28.998Z,38.69
2023-05-08T14:14:55.885Z,39.88
2023-05-08T14:17:22.587Z,40.67
2023-05-08T14:19:49.258Z,41.56
2023-05-08T14:22:15.873Z,39.30
2023-05-08T14:24:42.583Z,38.72
2023-05-08T14:27:09.233Z,38.26
2023-05-08T14:29:36.189Z,35.27
2023-05-08T14:32:03.086Z,35.10
2023-05-08T14:34:29.869Z,35.60
2023-05-08T14:36:56.440Z,35.26
2023-05-08T14:39:23.059Z,36.71
2023-05-08T14:42:10.320Z,37.59
2023-05-08T14:44:36.268Z,35.46
2023-05-08T14:47:02.901Z,33.97
2023-05-08T14:49:37.394Z,34.56
2023-05-08T14:52:05.979Z,34.10
2023-05-08T14:54:32.782Z,34.99
2023-05-08T14:56:59.628Z,34.57
2023-05-08T14:59:26.261Z,35.28
2023-05-08T15:01:52.966Z,33.95
2023-05-08T15:04:19.884Z,32.74
2023-05-08T15:06:46.954Z,34.82
2023-05-08T15:09:13.736Z,33.60
2023-05-08T15:11:40.406Z,34.61
2023-05-08T15:14:07.185Z,33.43
2023-05-08T15:16:33.946Z,33.71
2023-05-08T15:19:00.559Z,33.94
2023-05-08T15:21:27.658Z,33.81
2023-05-08T15:23:55.657Z,34.20
2023-05-08T15:26:23.081Z,33.02
2023-05-08T15:28:50.975Z,34.79
2023-05-08T15:31:18.496Z,35.85
2023-05-08T15:33:45.566Z,34.42
2023-05-08T15:36:13.622Z,35.11
2023-05-08T15:38:41.306Z,34.13
2023-05-08T15:41:11.412Z,34.57
2023-05-08T15:43:40.841Z,34.50
2023-05-08T15:46:07.518Z,34.64
2023-05-08T15:48:34.180Z,33.80
2023-05-08T15:51:00.857Z,34.53
2023-05-08T15:53:27.516Z,33.54
2023-05-08T15:55:55.703Z,33.61
2023-05-08T15:58:22.648Z,32.99
2023-05-08T16:00:49.499Z,32.09
2023-05-08T16:03:16.219Z,35.15
2023-05-08T16:05:43.480Z,32.44
2023-05-08T16:08:12.569Z,32.79
2023-05-08T16:10:40.746Z,33.74
2023-05-08T16:13:08.073Z,33.59
2023-05-08T16:15:34.783Z,33.08
2023-05-08T16:18:01.542Z,35.36
2023-05-08T16:20:28.276Z,35.79
2023-05-08T16:22:56.055Z,35.43
2023-05-08T16:25:23.633Z,36.18
2023-05-08T16:27:50.351Z,36.08
2023-05-08T16:30:17.779Z,36.96
2023-05-08T16:32:47.444Z,38.03
2023-05-08T16:35:14.961Z,37.90
2023-05-08T16:37:42.116Z,38.59
2023-05-08T16:40:10.201Z,39.17
2023-05-08T16:42:37.429Z,40.44
2023-05-08T16:45:05.126Z,41.44
2023-05-08T16:47:32.502Z,42.42
2023-05-08T16:49:59.464Z,42.85
2023-05-08T16:52:26.468Z,42.86
2023-05-08T16:54:53.506Z,44.45
2023-05-08T16:57:20.212Z,46.85
2023-05-08T16:59:46.870Z,47.75
2023-05-08T17:02:18.607Z,51.71
2023-05-08T17:04:49.272Z,57.11
2023-05-08T17:07:16.779Z,54.47
2023-05-08T17:09:44.040Z,52.33
2023-05-08T17:12:10.680Z,54.60
2023-05-08T17:14:39.362Z,58.23
2023-05-08T17:17:06.974Z,55.81
2023-05-08T17:19:33.871Z,54.46
2023-05-08T17:22:00.678Z,54.82
2023-05-08T17:24:28.994Z,59.35
2023-05-08T17:26:55.650Z,59.75
2023-05-08T17:29:22.295Z,60.86
2023-05-08T17:31:48.951Z,66.26
2023-05-08T17:34:15.754Z,66.55
2023-05-08T17:36:42.416Z,66.63
2023-05-08T17:39:09.097Z,63.95
2023-05-08T17:41:35.766Z,64.37
2023-05-08T17:44:02.429Z,62.92
2023-05-08T17:46:28.992Z,63.71
2023-05-08T17:48:55.689Z,64.88
2023-05-08T17:51:22.329Z,63.76
2023-05-08T17:53:49.031Z,63.84
2023-05-08T17:56:20.308Z,61.76
2023-05-08T17:58:47.032Z,62.65
2023-05-08T18:01:13.726Z,60.19
2023-05-08T18:03:40.771Z,58.90
2023-05-08T18:06:08.001Z,59.35
2023-05-08T18:08:34.609Z,57.98
2023-05-08T18:11:01.271Z,57.67
2023-05-08T18:13:27.908Z,56.39
2023-05-08T18:15:54.570Z,58.56
2023-05-08T18:18:21.156Z,55.53
2023-05-08T18:20:47.826Z,54.50
2023-05-08T18:23:14.468Z,55.37
2023-05-08T18:25:41.224Z,53.48
2023-05-08T18:28:07.873Z,52.21
2023-05-08T18:30:36.411Z,50.37
2023-05-08T18:33:03.162Z,50.02
2023-05-08T18:35:29.795Z,51.01
2023-05-08T18:37:56.518Z,51.06
2023-05-08T18:40:23.122Z,51.15
2023-05-08T18:42:49.977Z,49.50
2023-05-08T18:45:16.707Z,49.59
2023-05-08T18:47:43.493Z,49.03
2023-05-08T18:50:10.513Z,48.00
2023-05-08T18:52:37.107Z,46.12
2023-05-08T18:55:03.892Z,46.77
2023-05-08T18:57:30.604Z,44.01
2023-05-08T18:59:57.167Z,43.53
2023-05-08T19:02:28.034Z,42.28
2023-05-08T19:04:54.834Z,42.44
2023-05-08T19:07:21.480Z,41.79
2023-05-08T19:09:48.081Z,41.80
2023-05-08T19:12:14.815Z,41.38
2023-05-08T19:14:41.431Z,39.79
2023-05-08T19:17:08.015Z,39.16
2023-05-08T19:19:34.587Z,38.54
2023-05-08T19:22:01.210Z,37.83
2023-05-08T19:24:29.891Z,38.39
2023-05-08T19:27:00.024Z,37.21
2023-05-08T19:29:26.862Z,36.31
2023-05-08T19:31:53.581Z,37.56
2023-05-08T19:34:20.254Z,37.59
2023-05-08T19:36:46.892Z,36.18
2023-05-08T19:39:14.547Z,36.04
2023-05-08T19:41:41.216Z,36.67
2023-05-08T19:44:07.854Z,36.68
2023-05-08T19:46:34.613Z,37.41
2023-05-08T19:49:01.493Z,36.90
2023-05-08T19:51:28.166Z,36.60
2023-05-08T19:53:54.766Z,36.30
2023-05-08T19:56:21.436Z,36.09
2023-05-08T19:58:48.056Z,37.27
2023-05-08T20:01:14.931Z,37.30
2023-05-08T20:03:41.768Z,36.25
2023-05-08T20:06:08.564Z,37.33
2023-05-08T20:08:35.169Z,36.65
2023-05-08T20:11:07.100Z,36.30
2023-05-08T20:13:33.692Z,36.83
2023-05-08T20:16:00.335Z,37.04
2023-05-08T20:18:26.969Z,35.28
2023-05-08T20:20:53.577Z,35.68
2023-05-08T20:23:20.319Z,37.54
2023-05-08T20:25:47.957Z,37.81
2023-05-08T20:28:15.260Z,37.88
2023-05-08T20:30:41.849Z,35.66
2023-05-08T20:33:08.486Z,36.05
2023-05-08T20:35:36.070Z,35.10
2023-05-08T20:38:02.749Z,36.29
2023-05-08T20:40:29.473Z,35.99
2023-05-08T20:42:56.152Z,35.02
2023-05-08T20:45:22.758Z,35.34
2023-05-08T20:47:49.418Z,35.66
2023-05-08T20:50:16.311Z,34.98
2023-05-08T20:52:43.256Z,35.53
2023-05-08T20:55:10.167Z,34.09
2023-05-08T20:57:36.963Z,34.55
2023-05-08T21:00:04.301Z,35.53
2023-05-08T21:02:30.932Z,35.15
2023-05-08T21:04:57.606Z,34.27
2023-05-08T21:07:24.234Z,33.96
2023-05-08T21:09:51.053Z,34.72
2023-05-08T21:12:17.617Z,34.93
2023-05-08T21:14:44.290Z,35.42
2023-05-08T21:17:10.932Z,35.34
2023-05-08T21:19:37.639Z,32.83
2023-05-08T21:22:04.926Z,35.03
2023-05-08T21:24:31.557Z,34.11
2023-05-08T21:26:59.698Z,34.50
2023-05-08T21:29:26.539Z,33.69
2023-05-08T21:31:53.318Z,34.65
2023-05-08T21:34:22.841Z,33.54
2023-05-08T21:36:49.420Z,35.48
2023-05-08T21:39:16.056Z,34.94
2023-05-08T21:41:43.681Z,34.90
2023-05-08T21:44:12.730Z,35.27
2023-05-08T21:46:39.464Z,34.78
2023-05-08T21:49:06.300Z,34.65
2023-05-08T21:51:35.068Z,35.50
2023-05-08T21:54:01.817Z,33.79
2023-05-08T21:56:28.496Z,34.14
2023-05-08T21:58:55.700Z,33.76
2023-05-08T22:01:22.412Z,35.38
2023-05-08T22:03:49.474Z,36.04
2023-05-08T22:06:16.211Z,36.84
2023-05-08T22:08:42.855Z,36.10
2023-05-08T22:11:09.485Z,36.16
2023-05-08T22:13:36.460Z,37.42
2023-05-08T22:16:03.205Z,37.59
2023-05-08T22:18:29.853Z,36.83
2023-05-08T22:20:56.484Z,37.41
2023-05-08T22:23:23.136Z,35.11
2023-05-08T22:25:51.145Z,37.53
2023-05-08T22:28:17.729Z,35.90
2023-05-08T22:30:44.542Z,36.02
2023-05-08T22:33:11.255Z,37.97
2023-05-08T22:35:37.946Z,36.88
2023-05-08T22:38:04.512Z,37.84
2023-05-08T22:40:31.231Z,38.10
2023-05-08T22:42:58.873Z,36.21
2023-05-08T22:45:26.847Z,37.28
2023-05-08T22:47:54.453Z,38.48
2023-05-08T22:50:21.522Z,37.79
2023-05-08T22:52:48.330Z,38.17
2023-05-08T22:55:15.828Z,38.93
2023-05-08T22:57:43.151Z,38.24
2023-05-08T23:00:10.444Z,37.24
2023-05-08T23:02:37.280Z,37.91
2023-05-08T23:05:04.358Z,40.66
2023-05-08T23:07:31.264Z,39.72
2023-05-08T23:09:57.891Z,41.05
2023-05-08T23:12:24.527Z,40.60
2023-05-08T23:14:52.056Z,39.26
2023-05-08T23:17:18.748Z,39.60
2023-05-08T23:19:45.645Z,37.20
2023-05-08T23:22:12.472Z,39.05
2023-05-08T23:24:39.321Z,38.77
2023-05-08T23:27:06.007Z,38.00
2023-05-08T23:29:32.644Z,38.23
2023-05-08T23:32:00.283Z,39.08
2023-05-08T23:34:27.021Z,39.26
2023-05-08T23:36:53.653Z,36.88
2023-05-08T23:39:20.332Z,37.99
2023-05-08T23:41:47.541Z,37.52
2023-05-08T23:44:15.268Z,36.22
2023-05-08T23:46:42.028Z,38.68
2023-05-08T23:49:08.733Z,38.25
2023-05-08T23:51:35.400Z,40.24
2023-05-08T23:54:02.131Z,39.67
2023-05-08T23:56:29.716Z,38.66
2023-05-08T23:58:56.791Z,39.49
